Time;durP1;ratioP1;P1;durP2;ratioP2;P2;SDS_P1;SDS_P2;PMS_P1;PMS_P2;Temp;Humidity;BMP_temperature;BMP_pressure;BME280_temperature;BME280_humidity;BME280_pressure;Samples;Min_cycle;Max_cycle;Signal;HPM_P1;HPM_P2
2023/12/02 00:01:43;;;;;;;;;;;2.30;99.90;;;;;;5016526;28;20042;-77
2023/12/02 00:04:08;;;;;;;;;;;2.30;99.90;;;;;;5014709;28;19979;-76
2023/12/02 00:06:34;;;;;;;;;;;2.30;99.90;;;;;;5016257;28;19909;-76
2023/12/02 00:08:59;;;;;;;;;;;2.40;99.90;;;;;;5015807;28;19917;-76
2023/12/02 00:11:25;;;;;;;;;;;2.40;99.90;;;;;;5014862;28;19916;-76
2023/12/02 00:13:50;;;;;;;;;;;2.40;99.90;;;;;;5015951;28;20295;-76
2023/12/02 00:16:16;;;;;;;;;;;2.30;99.90;;;;;;5015948;28;19910;-76
2023/12/02 00:18:41;;;;;;;;;;;2.30;99.90;;;;;;5014695;28;19999;-76
2023/12/02 00:21:07;;;;;;;;;;;2.30;99.90;;;;;;5008793;28;20403;-76
2023/12/02 00:23:32;;;;;;;;;;;2.30;99.90;;;;;;5003005;28;20397;-77
2023/12/02 00:25:58;;;;;;;;;;;2.20;99.90;;;;;;4996674;28;20385;-77
2023/12/02 00:28:24;;;;;;;;;;;2.20;99.90;;;;;;5023211;28;20000;-77
2023/12/02 00:30:49;;;;;;;;;;;2.20;99.90;;;;;;5016220;28;19914;-75
2023/12/02 00:33:15;;;;;;;;;;;2.10;99.90;;;;;;5004777;28;19926;-75
2023/12/02 00:35:40;;;;;;;;;;;2.20;99.90;;;;;;4996272;28;20284;-75
2023/12/02 00:38:06;;;;;;;;;;;2.10;99.90;;;;;;4995954;28;19960;-76
2023/12/02 00:40:31;;;;;;;;;;;2.10;99.90;;;;;;5012476;28;19917;-77
2023/12/02 00:42:57;;;;;;;;;;;2.00;99.90;;;;;;5015572;28;20347;-75
2023/12/02 00:45:22;;;;;;;;;;;2.00;99.90;;;;;;5015392;28;19910;-75
2023/12/02 00:47:48;;;;;;;;;;;2.10;99.90;;;;;;5013569;28;19917;-76
2023/12/02 00:50:13;;;;;;;;;;;2.10;99.90;;;;;;5006724;28;19913;-77
2023/12/02 00:52:39;;;;;;;;;;;2.00;99.90;;;;;;5010742;28;19944;-77
2023/12/02 00:55:05;;;;;;;;;;;2.00;99.90;;;;;;5011311;28;19911;-76
2023/12/02 00:57:30;;;;;;;;;;;2.00;99.90;;;;;;5015456;28;19909;-75
2023/12/02 00:59:56;;;;;;;;;;;2.00;99.90;;;;;;5015118;28;19971;-76
2023/12/02 01:02:21;;;;;;;;;;;2.00;99.90;;;;;;5014742;28;19916;-76
2023/12/02 01:04:47;;;;;;;;;;;2.00;99.90;;;;;;5014474;28;19917;-76
2023/12/02 01:07:12;;;;;;;;;;;2.00;99.90;;;;;;5014953;28;19909;-76
2023/12/02 01:09:38;;;;;;;;;;;2.00;99.90;;;;;;5014667;28;19910;-75
2023/12/02 01:12:03;;;;;;;;;;;2.00;99.90;;;;;;5010420;28;20265;-76
2023/12/02 01:14:29;;;;;;;;;;;2.00;99.90;;;;;;4994534;28;19917;-76
2023/12/02 01:16:55;;;;;;;;;;;2.00;99.90;;;;;;4995207;28;19913;-76
2023/12/02 01:19:21;;;;;;;;;;;2.00;99.90;;;;;;5010397;28;20396;-76
2023/12/02 01:21:46;;;;;;;;;;;2.00;99.90;;;;;;5013424;28;20392;-75
2023/12/02 01:24:12;;;;;;;;;;;2.00;99.90;;;;;;4998293;28;19910;-75
2023/12/02 01:26:37;;;;;;;;;;;2.00;99.90;;;;;;4995502;28;20285;-76
2023/12/02 01:29:03;;;;;;;;;;;1.90;99.90;;;;;;4994989;28;19910;-76
2023/12/02 01:31:28;;;;;;;;;;;1.90;99.90;;;;;;4996194;28;19929;-77
2023/12/02 01:33:54;;;;;;;;;;;1.90;99.90;;;;;;5014551;28;19940;-77
2023/12/02 01:36:19;;;;;;;;;;;1.80;99.90;;;;;;5007801;28;19918;-75
2023/12/02 01:38:45;;;;;;;;;;;1.80;99.90;;;;;;5009601;28;20281;-77
2023/12/02 01:41:10;;;;;;;;;;;1.80;99.90;;;;;;5014029;28;19917;-77
2023/12/02 01:43:37;;;;;;;;;;;1.70;99.90;;;;;;5014503;28;19909;-77
2023/12/02 01:46:03;;;;;;;;;;;1.70;99.90;;;;;;5014375;28;19910;-77
2023/12/02 01:48:29;;;;;;;;;;;1.60;99.90;;;;;;5009864;28;20296;-75
2023/12/02 01:50:55;;;;;;;;;;;1.60;99.90;;;;;;5003194;28;20401;-75
2023/12/02 01:53:21;;;;;;;;;;;1.60;99.90;;;;;;4994717;28;19914;-76
2023/12/02 01:55:46;;;;;;;;;;;1.50;99.90;;;;;;5015866;28;20303;-76
2023/12/02 01:58:12;;;;;;;;;;;1.60;99.90;;;;;;5012758;28;19916;-76
2023/12/02 02:00:37;;;;;;;;;;;1.50;99.90;;;;;;5014261;28;19909;-76
2023/12/02 02:03:03;;;;;;;;;;;1.50;99.90;;;;;;5013925;28;19910;-76
2023/12/02 02:05:28;;;;;;;;;;;1.50;99.90;;;;;;5014076;28;19988;-75
2023/12/02 02:07:54;;;;;;;;;;;1.50;99.90;;;;;;5013959;28;19909;-76
2023/12/02 02:10:23;;;;;;;;;;;1.40;99.90;;;;;;5013814;28;19910;-76
2023/12/02 02:12:48;;;;;;;;;;;1.40;99.90;;;;;;5013897;28;19914;-76
2023/12/02 02:15:14;;;;;;;;;;;1.40;99.90;;;;;;5013882;28;19913;-75
2023/12/02 02:17:39;;;;;;;;;;;1.40;99.90;;;;;;5013959;28;19968;-75
2023/12/02 02:20:05;;;;;;;;;;;1.40;99.90;;;;;;5010542;28;19941;-76
2023/12/02 02:22:31;;;;;;;;;;;1.40;99.90;;;;;;5010886;28;19914;-76
2023/12/02 02:24:56;;;;;;;;;;;1.40;99.90;;;;;;5003545;28;19910;-76
2023/12/02 02:27:22;;;;;;;;;;;1.40;99.90;;;;;;4997087;28;19913;-75
2023/12/02 02:29:47;;;;;;;;;;;1.40;99.90;;;;;;5013717;28;20351;-76
2023/12/02 02:32:13;;;;;;;;;;;1.40;99.90;;;;;;5010483;28;19928;-76
2023/12/02 02:34:41;;;;;;;;;;;1.40;99.90;;;;;;4994199;28;19910;-76
2023/12/02 02:37:07;;;;;;;;;;;1.50;99.90;;;;;;4993820;28;19910;-76
2023/12/02 02:39:33;;;;;;;;;;;1.60;99.90;;;;;;4993787;28;20005;-76
2023/12/02 02:42:05;;;;;;;;;;;1.60;99.90;;;;;;4994059;28;19910;-76
2023/12/02 02:44:31;;;;;;;;;;;1.70;99.90;;;;;;5013595;28;19948;-75
2023/12/02 02:46:57;;;;;;;;;;;1.70;99.90;;;;;;5013657;28;19910;-77
2023/12/02 02:49:22;;;;;;;;;;;1.80;99.90;;;;;;5020896;28;19913;-77
2023/12/02 02:51:48;;;;;;;;;;;1.80;99.90;;;;;;4999180;28;20385;-77
2023/12/02 02:54:13;;;;;;;;;;;1.90;99.90;;;;;;4993728;28;20016;-77
2023/12/02 02:56:39;;;;;;;;;;;1.90;99.90;;;;;;5007330;28;19913;-75
2023/12/02 02:59:04;;;;;;;;;;;2.00;99.90;;;;;;5013486;28;20288;-77
2023/12/02 03:01:30;;;;;;;;;;;2.00;99.90;;;;;;5013381;28;19977;-77
2023/12/02 03:03:55;;;;;;;;;;;2.00;99.90;;;;;;5012478;28;19910;-77
2023/12/02 03:06:21;;;;;;;;;;;2.00;99.90;;;;;;5013127;28;20415;-77
2023/12/02 03:08:46;;;;;;;;;;;2.10;99.90;;;;;;5028352;28;20052;-76
2023/12/02 03:11:12;;;;;;;;;;;2.10;99.90;;;;;;5012956;28;20055;-76
2023/12/02 03:13:37;;;;;;;;;;;2.10;99.90;;;;;;5012966;28;19936;-77
2023/12/02 03:16:03;;;;;;;;;;;2.10;99.90;;;;;;5013189;28;19910;-77
2023/12/02 03:18:29;;;;;;;;;;;2.10;99.90;;;;;;5004176;28;19914;-77
2023/12/02 03:20:54;;;;;;;;;;;2.10;99.90;;;;;;4994163;28;19918;-75
2023/12/02 03:23:20;;;;;;;;;;;2.20;99.90;;;;;;4995013;28;19910;-75
2023/12/02 03:25:45;;;;;;;;;;;2.20;99.90;;;;;;5010269;28;20368;-76
2023/12/02 03:28:12;;;;;;;;;;;2.20;99.90;;;;;;5003219;28;19917;-76
2023/12/02 03:30:38;;;;;;;;;;;2.20;99.90;;;;;;4996512;28;19913;-76
2023/12/02 03:33:03;;;;;;;;;;;2.30;99.90;;;;;;4999161;28;19985;-75
2023/12/02 03:35:29;;;;;;;;;;;2.30;99.90;;;;;;4993531;28;19913;-77
2023/12/02 03:37:54;;;;;;;;;;;2.30;99.90;;;;;;5008233;28;20435;-76
2023/12/02 03:40:20;;;;;;;;;;;2.30;99.90;;;;;;4993551;28;19910;-77
2023/12/02 03:42:45;;;;;;;;;;;2.30;99.90;;;;;;4993876;28;19910;-77
2023/12/02 03:45:11;;;;;;;;;;;2.10;99.90;;;;;;4997199;28;20357;-75
2023/12/02 03:47:37;;;;;;;;;;;2.10;99.90;;;;;;4996998;28;19917;-76
2023/12/02 03:50:04;;;;;;;;;;;2.00;99.90;;;;;;5003106;28;20003;-76
2023/12/02 03:52:30;;;;;;;;;;;2.00;99.90;;;;;;5016295;28;20005;-76
2023/12/02 03:54:56;;;;;;;;;;;1.90;99.90;;;;;;5016543;28;19941;-77
2023/12/02 03:57:21;;;;;;;;;;;1.90;99.90;;;;;;5016391;28;19910;-77
2023/12/02 03:59:47;;;;;;;;;;;2.00;99.90;;;;;;5016332;28;19916;-75
2023/12/02 04:02:12;;;;;;;;;;;1.90;99.90;;;;;;5016433;28;19910;-75
2023/12/02 04:04:38;;;;;;;;;;;1.90;99.90;;;;;;5015496;28;19909;-76
2023/12/02 04:07:04;;;;;;;;;;;1.90;99.90;;;;;;5016059;28;19917;-76
2023/12/02 04:09:30;;;;;;;;;;;1.80;99.90;;;;;;5016513;28;19956;-76
2023/12/02 04:11:55;;;;;;;;;;;1.80;99.90;;;;;;5011462;28;19945;-75
2023/12/02 04:14:21;;;;;;;;;;;1.80;99.90;;;;;;4996666;28;19914;-75
2023/12/02 04:16:46;;;;;;;;;;;1.90;99.90;;;;;;4996614;28;19913;-76
2023/12/02 04:19:12;;;;;;;;;;;1.90;99.90;;;;;;5010816;28;20442;-77
2023/12/02 04:21:42;;;;;;;;;;;1.90;99.90;;;;;;5014090;28;19914;-77
2023/12/02 04:24:08;;;;;;;;;;;2.00;99.90;;;;;;4998173;28;20250;-75
2023/12/02 04:26:35;;;;;;;;;;;2.00;99.90;;;;;;4996558;28;20001;-75
2023/12/02 04:29:01;;;;;;;;;;;2.00;99.90;;;;;;5012766;28;19916;-76
2023/12/02 04:31:27;;;;;;;;;;;2.00;99.90;;;;;;5015773;28;20386;-76
2023/12/02 04:33:52;;;;;;;;;;;2.00;99.90;;;;;;5015852;28;19913;-76
2023/12/02 04:36:18;;;;;;;;;;;1.90;99.90;;;;;;5012960;28;19917;-77
2023/12/02 04:38:43;;;;;;;;;;;1.90;99.90;;;;;;4995946;28;19971;-75
2023/12/02 04:41:09;;;;;;;;;;;2.00;99.90;;;;;;4996183;28;19914;-76
2023/12/02 04:43:34;;;;;;;;;;;1.90;99.90;;;;;;4996228;28;19910;-76
2023/12/02 04:46:00;;;;;;;;;;;1.90;99.90;;;;;;4995947;28;19917;-76
2023/12/02 04:48:26;;;;;;;;;;;2.00;99.90;;;;;;5015858;28;20288;-76
2023/12/02 04:50:51;;;;;;;;;;;2.00;99.90;;;;;;5006163;28;19937;-76
2023/12/02 04:53:17;;;;;;;;;;;1.90;99.90;;;;;;4995778;28;19914;-75
2023/12/02 04:55:42;;;;;;;;;;;1.90;99.90;;;;;;5000647;28;19910;-77
2023/12/02 04:58:08;;;;;;;;;;;1.80;99.90;;;;;;5015068;28;19936;-77
2023/12/02 05:00:33;;;;;;;;;;;1.70;99.90;;;;;;5013824;28;20284;-77
2023/12/02 05:03:00;;;;;;;;;;;1.70;99.90;;;;;;5015317;28;20007;-75
2023/12/02 05:05:26;;;;;;;;;;;1.60;99.90;;;;;;5015217;28;19917;-75
2023/12/02 05:07:51;;;;;;;;;;;1.50;99.90;;;;;;5015060;28;19917;-76
2023/12/02 05:10:17;;;;;;;;;;;1.40;99.90;;;;;;5009981;28;19960;-77
2023/12/02 05:12:42;;;;;;;;;;;1.40;99.90;;;;;;5009065;28;19964;-77
2023/12/02 05:15:11;;;;;;;;;;;1.30;99.90;;;;;;5013696;28;19910;-77
2023/12/02 05:17:36;;;;;;;;;;;1.40;99.90;;;;;;5014957;28;19956;-76
2023/12/02 05:20:02;;;;;;;;;;;1.40;99.90;;;;;;5012414;28;19921;-75
2023/12/02 05:22:28;;;;;;;;;;;1.50;99.90;;;;;;5006974;28;20281;-76
2023/12/02 05:24:53;;;;;;;;;;;1.50;99.90;;;;;;4995107;28;19917;-77
2023/12/02 05:27:19;;;;;;;;;;;1.50;99.90;;;;;;4998016;28;19917;-77
2023/12/02 05:29:44;;;;;;;;;;;1.60;99.90;;;;;;5013983;28;19909;-75
2023/12/02 05:32:10;;;;;;;;;;;1.60;99.90;;;;;;5012788;28;20308;-75
2023/12/02 05:34:36;;;;;;;;;;;1.60;99.90;;;;;;4994940;28;20388;-76
2023/12/02 05:37:02;;;;;;;;;;;1.60;99.90;;;;;;4994838;28;19910;-77
2023/12/02 05:39:27;;;;;;;;;;;1.60;99.90;;;;;;4995013;28;19910;-77
2023/12/02 05:41:53;;;;;;;;;;;1.70;99.90;;;;;;5010010;28;19910;-75
2023/12/02 05:44:19;;;;;;;;;;;1.70;99.90;;;;;;4994651;28;19910;-76
2023/12/02 05:46:44;;;;;;;;;;;1.70;99.90;;;;;;4995610;28;19972;-76
2023/12/02 05:49:10;;;;;;;;;;;1.70;99.90;;;;;;4998757;28;19913;-77
2023/12/02 05:51:38;;;;;;;;;;;1.70;99.90;;;;;;5006561;28;19909;-77
2023/12/02 05:54:07;;;;;;;;;;;1.70;99.90;;;;;;5029285;28;19913;-77
2023/12/02 05:56:33;;;;;;;;;;;1.70;99.90;;;;;;5014219;28;19909;-76
2023/12/02 05:58:58;;;;;;;;;;;1.60;99.90;;;;;;5029336;28;19910;-75
2023/12/02 06:01:24;;;;;;;;;;;1.80;99.90;;;;;;5014031;28;20380;-77
2023/12/02 06:03:49;;;;;;;;;;;1.70;99.90;;;;;;5028998;28;19913;-77
2023/12/02 06:06:15;;;;;;;;;;;1.70;99.90;;;;;;5012583;28;19976;-77
2023/12/02 06:08:40;;;;;;;;;;;1.70;99.90;;;;;;5013804;28;19920;-75
2023/12/02 06:11:06;;;;;;;;;;;1.70;99.90;;;;;;5014092;28;19909;-75
2023/12/02 06:13:32;;;;;;;;;;;1.70;99.90;;;;;;5013787;28;19920;-77
2023/12/02 06:15:57;;;;;;;;;;;1.70;99.90;;;;;;5014362;28;20360;-77
2023/12/02 06:18:23;;;;;;;;;;;1.60;99.90;;;;;;5012244;28;19936;-77
2023/12/02 06:20:48;;;;;;;;;;;1.60;99.90;;;;;;5012767;28;20367;-75
2023/12/02 06:23:14;;;;;;;;;;;1.60;99.90;;;;;;5016520;28;19920;-76
2023/12/02 06:25:39;;;;;;;;;;;1.50;99.90;;;;;;4995797;28;19918;-76
2023/12/02 06:28:05;;;;;;;;;;;1.50;99.90;;;;;;5009540;28;20373;-76
2023/12/02 06:30:31;;;;;;;;;;;1.50;99.90;;;;;;5015623;28;19909;-77
2023/12/02 06:32:56;;;;;;;;;;;1.50;99.90;;;;;;5006393;28;20356;-77
2023/12/02 06:35:22;;;;;;;;;;;1.50;99.90;;;;;;5013708;28;19956;-76
2023/12/02 06:37:48;;;;;;;;;;;1.30;99.90;;;;;;5013615;28;19910;-75
2023/12/02 06:40:13;;;;;;;;;;;1.30;99.90;;;;;;5010021;28;19914;-76
2023/12/02 06:42:39;;;;;;;;;;;1.20;99.90;;;;;;5024337;28;19909;-77
2023/12/02 06:45:05;;;;;;;;;;;1.20;99.90;;;;;;5013809;28;20383;-77
2023/12/02 06:47:31;;;;;;;;;;;1.10;99.90;;;;;;5013440;28;19909;-75
2023/12/02 06:49:56;;;;;;;;;;;1.10;99.90;;;;;;5005300;28;20292;-75
2023/12/02 06:52:22;;;;;;;;;;;1.00;99.90;;;;;;4996508;28;19910;-77
2023/12/02 06:54:47;;;;;;;;;;;1.00;99.90;;;;;;4994017;28;20359;-77
2023/12/02 06:57:13;;;;;;;;;;;0.90;99.90;;;;;;5011785;28;19909;-77
2023/12/02 06:59:38;;;;;;;;;;;0.90;99.90;;;;;;5013681;28;20012;-77
2023/12/02 07:02:04;;;;;;;;;;;0.80;99.90;;;;;;5013365;28;20441;-76
2023/12/02 07:04:29;;;;;;;;;;;0.80;99.90;;;;;;5023729;28;19918;-75
2023/12/02 07:06:55;;;;;;;;;;;0.70;99.90;;;;;;4999053;28;19949;-77
2023/12/02 07:09:20;;;;;;;;;;;0.70;99.90;;;;;;5001469;28;19963;-77
2023/12/02 07:11:46;;;;;;;;;;;0.70;99.90;;;;;;5003393;28;19960;-77
2023/12/02 07:14:11;;;;;;;;;;;0.70;99.90;;;;;;5012983;28;19913;-75
2023/12/02 07:16:37;;;;;;;;;;;0.70;99.90;;;;;;5013197;28;19910;-75
2023/12/02 07:19:03;;;;;;;;;;;0.70;99.90;;;;;;5015603;28;19920;-76
2023/12/02 07:21:29;;;;;;;;;;;0.70;99.90;;;;;;5016669;28;19914;-76
2023/12/02 07:23:54;;;;;;;;;;;0.70;99.90;;;;;;5016437;28;19932;-76
2023/12/02 07:26:20;;;;;;;;;;;0.70;99.90;;;;;;5004120;28;19914;-75
2023/12/02 07:28:45;;;;;;;;;;;0.60;99.90;;;;;;4997193;28;19937;-76
2023/12/02 07:31:14;;;;;;;;;;;0.70;99.90;;;;;;5001561;28;20365;-77
2023/12/02 07:33:39;;;;;;;;;;;0.60;99.90;;;;;;5009837;28;20335;-77
2023/12/02 07:36:05;;;;;;;;;;;0.60;99.90;;;;;;5032015;28;19919;-77
2023/12/02 07:38:30;;;;;;;;;;;0.60;99.90;;;;;;5016724;28;19909;-77
2023/12/02 07:40:56;;;;;;;;;;;0.60;99.90;;;;;;5016626;28;19960;-75
2023/12/02 07:43:21;;;;;;;;;;;0.60;99.90;;;;;;5016799;28;19909;-76
2023/12/02 07:45:47;;;;;;;;;;;0.60;99.90;;;;;;5016865;28;19910;-77
2023/12/02 07:48:12;;;;;;;;;;;0.60;99.90;;;;;;5008677;28;20068;-77
2023/12/02 07:50:38;;;;;;;;;;;0.50;99.90;;;;;;5023618;28;19971;-77
2023/12/02 07:53:03;;;;;;;;;;;0.50;99.90;;;;;;5012231;28;19914;-76
2023/12/02 07:55:29;;;;;;;;;;;0.50;99.90;;;;;;5013647;28;19914;-76
2023/12/02 07:57:54;;;;;;;;;;;0.60;99.90;;;;;;5008540;28;19916;-76
2023/12/02 08:00:20;;;;;;;;;;;0.70;99.90;;;;;;4998238;28;19921;-76
2023/12/02 08:02:46;;;;;;;;;;;0.80;99.90;;;;;;5003540;28;19982;-76
2023/12/02 08:05:11;;;;;;;;;;;0.80;99.90;;;;;;5015859;28;20017;-75
2023/12/02 08:07:37;;;;;;;;;;;0.80;99.90;;;;;;5016558;28;20008;-75
2023/12/02 08:10:02;;;;;;;;;;;0.90;99.90;;;;;;5014775;28;19913;-76
2023/12/02 08:12:28;;;;;;;;;;;0.90;99.90;;;;;;5016167;28;19999;-76
2023/12/02 08:14:53;;;;;;;;;;;1.00;99.90;;;;;;5014898;28;19960;-77
2023/12/02 08:17:19;;;;;;;;;;;1.10;99.90;;;;;;5016287;28;19913;-77
2023/12/02 08:19:44;;;;;;;;;;;1.20;99.90;;;;;;5015683;28;20388;-76
2023/12/02 08:22:10;;;;;;;;;;;1.30;99.90;;;;;;5002744;28;19909;-76
2023/12/02 08:24:42;;;;;;;;;;;1.40;99.90;;;;;;4996446;28;19914;-77
2023/12/02 08:27:11;;;;;;;;;;;1.50;99.90;;;;;;5012690;28;19910;-77
2023/12/02 08:29:36;;;;;;;;;;;1.50;99.90;;;;;;5015874;28;20353;-77
2023/12/02 08:32:03;;;;;;;;;;;1.70;99.90;;;;;;5007010;28;19969;-75
2023/12/02 08:34:28;;;;;;;;;;;1.90;99.90;;;;;;5015760;28;19914;-77
2023/12/02 08:36:55;;;;;;;;;;;2.10;99.90;;;;;;5015789;28;20346;-77
2023/12/02 08:39:21;;;;;;;;;;;2.20;99.90;;;;;;5030880;28;19909;-77
2023/12/02 08:41:46;;;;;;;;;;;2.20;99.90;;;;;;5015610;28;19917;-77
2023/12/02 08:44:12;;;;;;;;;;;2.20;99.90;;;;;;5010609;28;19920;-76
2023/12/02 08:46:38;;;;;;;;;;;2.20;99.90;;;;;;5008521;28;19952;-76
2023/12/02 08:49:03;;;;;;;;;;;2.20;99.90;;;;;;5009482;28;19917;-76
2023/12/02 08:51:29;;;;;;;;;;;2.30;99.90;;;;;;5004455;28;19976;-77
2023/12/02 08:53:58;;;;;;;;;;;2.30;99.90;;;;;;4995900;28;19914;-77
2023/12/02 08:56:24;;;;;;;;;;;2.30;99.90;;;;;;5018672;28;19914;-77
2023/12/02 08:58:51;;;;;;;;;;;2.40;99.90;;;;;;4995701;28;19921;-75
2023/12/02 09:01:16;;;;;;;;;;;2.40;99.90;;;;;;4995778;28;19910;-75
2023/12/02 09:03:42;;;;;;;;;;;2.40;99.90;;;;;;5007516;28;20261;-76
2023/12/02 09:06:07;;;;;;;;;;;2.40;99.90;;;;;;5015022;28;19910;-77
2023/12/02 09:08:33;;;;;;;;;;;2.50;99.90;;;;;;5014978;28;19909;-77
2023/12/02 09:10:59;;;;;;;;;;;2.50;99.90;;;;;;5015122;28;19956;-75
2023/12/02 09:13:43;;;;;;;;;;;2.50;99.90;;;;;;5014922;28;19914;-77
2023/12/02 09:16:15;;;;;;;;;;;2.60;99.90;;;;;;5030174;28;19916;-77
2023/12/02 09:18:41;;;;;;;;;;;2.60;99.90;;;;;;5015270;28;20415;-77
2023/12/02 09:21:19;;;;;;;;;;;2.60;99.90;;;;;;5008832;28;19949;-77
2023/12/02 09:23:44;;;;;;;;;;;2.60;99.90;;;;;;5002400;28;19983;-75
2023/12/02 09:26:25;;;;;;;;;;;2.50;99.90;;;;;;5018709;28;20361;-76
2023/12/02 09:28:51;;;;;;;;;;;2.60;99.90;;;;;;4995242;28;19914;-77
2023/12/02 09:31:16;;;;;;;;;;;2.60;99.90;;;;;;4995115;28;20012;-77
2023/12/02 09:33:42;;;;;;;;;;;2.60;99.90;;;;;;4994844;28;20021;-77
2023/12/02 09:36:07;;;;;;;;;;;2.70;99.90;;;;;;4994855;28;19937;-76
2023/12/02 09:38:33;;;;;;;;;;;2.70;99.90;;;;;;4995525;28;19989;-76
2023/12/02 09:41:17;;;;;;;;;;;2.70;99.90;;;;;;4994612;28;20457;-76
2023/12/02 09:43:52;;;;;;;;;;;2.80;99.90;;;;;;5008518;28;19933;-76
2023/12/02 09:46:18;;;;;;;;;;;2.80;99.90;;;;;;5013165;28;19915;-77
2023/12/02 09:48:44;;;;;;;;;;;2.80;99.90;;;;;;5009810;28;20367;-76
2023/12/02 09:51:18;;;;;;;;;;;3.00;99.90;;;;;;5005342;28;19917;-75
2023/12/02 09:53:50;;;;;;;;;;;3.10;99.90;;;;;;4996573;28;19917;-76
2023/12/02 09:56:25;;;;;;;;;;;3.20;99.90;;;;;;5004808;28;20004;-77
2023/12/02 09:58:54;;;;;;;;;;;3.20;99.90;;;;;;5013441;28;19921;-75
2023/12/02 10:01:37;;;;;;;;;;;3.20;99.90;;;;;;5019528;28;19918;-77
2023/12/02 10:04:12;;;;;;;;;;;3.20;99.90;;;;;;5001466;28;20300;-75
2023/12/02 10:06:47;;;;;;;;;;;3.40;99.90;;;;;;4994575;28;19975;-75
2023/12/02 10:09:32;;;;;;;;;;;3.50;99.90;;;;;;5027363;28;20300;-77
2023/12/02 10:11:57;;;;;;;;;;;3.40;99.90;;;;;;5013944;28;20443;-77
2023/12/02 10:14:24;;;;;;;;;;;3.50;99.90;;;;;;5013920;28;19918;-77
2023/12/02 10:16:52;;;;;;;;;;;3.50;99.90;;;;;;5013765;28;20304;-76
2023/12/02 10:19:24;;;;;;;;;;;3.50;99.90;;;;;;5013657;28;19913;-75
2023/12/02 10:21:52;;;;;;;;;;;3.60;99.90;;;;;;5001779;28;20009;-77
2023/12/02 10:24:24;;;;;;;;;;;3.70;99.90;;;;;;4994124;28;19956;-77
2023/12/02 10:27:03;;;;;;;;;;;3.70;99.90;;;;;;4994130;28;19910;-77
2023/12/02 10:29:35;;;;;;;;;;;3.70;99.90;;;;;;4994353;28;19917;-76
2023/12/02 10:32:06;;;;;;;;;;;3.80;99.90;;;;;;5009358;28;19921;-75
2023/12/02 10:34:37;;;;;;;;;;;4.00;99.90;;;;;;5013638;28;20257;-77
2023/12/02 10:37:03;;;;;;;;;;;4.00;99.90;;;;;;5013209;28;19913;-77
2023/12/02 10:39:43;;;;;;;;;;;4.20;99.90;;;;;;5012198;28;19910;-77
2023/12/02 10:42:35;;;;;;;;;;;4.10;99.90;;;;;;5010723;28;19976;-76
2023/12/02 10:45:04;;;;;;;;;;;4.10;99.90;;;;;;4993329;28;19913;-75
2023/12/02 10:47:31;;;;;;;;;;;4.00;99.90;;;;;;5008736;28;19913;-77
2023/12/02 10:49:57;;;;;;;;;;;4.00;99.90;;;;;;5002135;28;19913;-77
2023/12/02 10:52:24;;;;;;;;;;;4.00;99.90;;;;;;5009992;28;20012;-77
2023/12/02 10:54:52;;;;;;;;;;;4.20;99.90;;;;;;4993887;28;19921;-75
2023/12/02 10:57:19;;;;;;;;;;;4.30;99.90;;;;;;5012225;28;19909;-75
2023/12/02 10:59:53;;;;;;;;;;;4.40;99.90;;;;;;5013448;28;20392;-76
2023/12/02 11:02:24;;;;;;;;;;;4.50;99.90;;;;;;5012978;28;20395;-76
2023/12/02 11:04:53;;;;;;;;;;;4.60;99.90;;;;;;5013364;28;20011;-77
2023/12/02 11:07:22;;;;;;;;;;;4.60;99.90;;;;;;5013445;28;19910;-75
2023/12/02 11:10:02;;;;;;;;;;;4.70;99.90;;;;;;5011900;28;20308;-76
2023/12/02 11:12:41;;;;;;;;;;;4.90;99.90;;;;;;5005374;28;19917;-76
2023/12/02 11:15:11;;;;;;;;;;;4.90;99.90;;;;;;4993750;28;19910;-77
2023/12/02 11:17:55;;;;;;;;;;;4.80;99.90;;;;;;4995261;28;19984;-77
2023/12/02 11:20:22;;;;;;;;;;;4.80;99.90;;;;;;5012464;28;19917;-75
2023/12/02 11:23:06;;;;;;;;;;;5.00;99.90;;;;;;5006543;28;19980;-75
2023/12/02 11:25:37;;;;;;;;;;;5.10;99.90;;;;;;5007073;28;19910;-76
2023/12/02 11:28:14;;;;;;;;;;;5.00;99.90;;;;;;5003525;28;19910;-77
2023/12/02 11:30:46;;;;;;;;;;;5.10;99.90;;;;;;4996026;28;19910;-76
2023/12/02 11:33:27;;;;;;;;;;;5.30;99.90;;;;;;4998429;28;19922;-76
2023/12/02 11:36:07;;;;;;;;;;;5.30;99.90;;;;;;4993415;28;20004;-76
2023/12/02 11:38:33;;;;;;;;;;;5.30;99.90;;;;;;5008519;28;20443;-76
2023/12/02 11:41:16;;;;;;;;;;;5.40;99.90;;;;;;4993510;28;19913;-76
2023/12/02 11:43:54;;;;;;;;;;;5.30;99.90;;;;;;4993571;28;20300;-77
2023/12/02 11:46:23;;;;;;;;;;;5.60;99.90;;;;;;5008332;28;20404;-76
2023/12/02 11:48:57;;;;;;;;;;;5.80;99.90;;;;;;4997183;28;19940;-76
2023/12/02 11:51:41;;;;;;;;;;;5.70;99.90;;;;;;5001953;28;19909;-76
2023/12/02 11:54:19;;;;;;;;;;;5.70;99.90;;;;;;4993227;28;20348;-77
2023/12/02 11:56:57;;;;;;;;;;;5.90;99.90;;;;;;5007509;28;19909;-77
2023/12/02 11:59:27;;;;;;;;;;;5.80;99.90;;;;;;5012981;28;19910;-75
2023/12/02 12:02:22;;;;;;;;;;;6.00;99.90;;;;;;5012887;28;19910;-75
2023/12/02 12:04:50;;;;;;;;;;;5.90;99.90;;;;;;4994649;28;19909;-77
2023/12/02 12:07:37;;;;;;;;;;;5.90;99.90;;;;;;4996880;28;19960;-77
2023/12/02 12:10:07;;;;;;;;;;;6.00;99.90;;;;;;4995206;28;19910;-77
2023/12/02 12:12:33;;;;;;;;;;;6.00;99.90;;;;;;5004878;28;19909;-76
2023/12/02 12:15:01;;;;;;;;;;;6.20;99.90;;;;;;5016092;28;19956;-75
2023/12/02 12:17:27;;;;;;;;;;;6.10;99.90;;;;;;5016200;28;19914;-76
2023/12/02 12:19:52;;;;;;;;;;;6.30;99.90;;;;;;5014487;28;19917;-77
2023/12/02 12:22:18;;;;;;;;;;;6.30;99.90;;;;;;4996653;28;20479;-77
2023/12/02 12:24:44;;;;;;;;;;;6.10;99.90;;;;;;4996513;28;19961;-77
2023/12/02 12:27:10;;;;;;;;;;;6.10;99.90;;;;;;4998011;28;19937;-75
2023/12/02 12:29:52;;;;;;;;;;;6.20;99.90;;;;;;5015903;28;19910;-75
2023/12/02 12:32:18;;;;;;;;;;;6.40;99.90;;;;;;5026328;28;19922;-77
2023/12/02 12:34:44;;;;;;;;;;;6.50;99.90;;;;;;4999525;28;19914;-77
2023/12/02 12:37:14;;;;;;;;;;;6.50;99.90;;;;;;4996156;28;19952;-76
2023/12/02 12:39:39;;;;;;;;;;;6.30;99.90;;;;;;4995976;28;19959;-75
2023/12/02 12:42:05;;;;;;;;;;;6.30;99.90;;;;;;4996217;28;19909;-76
2023/12/02 12:44:31;;;;;;;;;;;6.30;99.90;;;;;;5010999;28;20393;-77
2023/12/02 12:46:57;;;;;;;;;;;6.40;99.90;;;;;;4996163;28;19910;-77
2023/12/02 12:49:24;;;;;;;;;;;6.70;99.90;;;;;;5002089;28;19920;-77
2023/12/02 12:51:51;;;;;;;;;;;6.80;99.90;;;;;;5006622;28;19913;-75
2023/12/02 12:54:19;;;;;;;;;;;6.70;99.90;;;;;;5015284;28;19913;-76
2023/12/02 12:56:47;;;;;;;;;;;6.70;99.90;;;;;;5015181;28;19959;-77
2023/12/02 12:59:18;;;;;;;;;;;6.70;99.90;;;;;;5015286;28;19959;-77
2023/12/02 13:01:53;;;;;;;;;;;6.80;99.90;;;;;;5030515;28;19933;-77
2023/12/02 13:04:26;;;;;;;;;;;7.00;99.90;;;;;;5013978;28;20000;-76
2023/12/02 13:07:02;;;;;;;;;;;6.80;99.90;;;;;;5015552;28;20372;-77
2023/12/02 13:09:29;;;;;;;;;;;6.80;99.90;;;;;;5014960;28;19919;-77
2023/12/02 13:12:07;;;;;;;;;;;6.70;99.90;;;;;;5011781;28;20016;-77
2023/12/02 13:14:53;;;;;;;;;;;6.90;99.90;;;;;;4993915;28;19964;-77
2023/12/02 13:17:19;;;;;;;;;;;7.30;99.90;;;;;;4994324;28;20284;-77
2023/12/02 13:19:45;;;;;;;;;;;7.50;99.90;;;;;;5011657;28;19924;-76
2023/12/02 13:22:12;;;;;;;;;;;8.00;99.90;;;;;;4995855;28;19914;-77
2023/12/02 13:24:40;;;;;;;;;;;8.50;99.90;;;;;;5013454;28;19913;-77
2023/12/02 13:27:30;;;;;;;;;;;8.20;99.90;;;;;;5014659;28;19960;-77
2023/12/02 13:29:57;;;;;;;;;;;8.40;99.90;;;;;;5013396;28;19910;-75
2023/12/02 13:32:23;;;;;;;;;;;8.90;99.90;;;;;;5026560;28;19921;-76
2023/12/02 13:34:50;;;;;;;;;;;9.20;99.90;;;;;;4995030;28;19920;-77
2023/12/02 13:37:30;;;;;;;;;;;9.00;99.90;;;;;;4997091;28;21631;-77
2023/12/02 13:39:56;;;;;;;;;;;8.80;99.90;;;;;;5029763;28;19910;-77
2023/12/02 13:42:27;;;;;;;;;;;8.60;99.90;;;;;;5014278;28;19960;-77
2023/12/02 13:44:53;;;;;;;;;;;8.30;99.90;;;;;;5014015;28;19913;-76
2023/12/02 13:47:21;;;;;;;;;;;7.80;99.90;;;;;;5014611;28;19910;-76
2023/12/02 13:49:53;;;;;;;;;;;7.50;99.90;;;;;;5006860;28;19953;-77
2023/12/02 13:52:38;;;;;;;;;;;7.40;99.90;;;;;;4999238;28;19909;-77
2023/12/02 13:55:29;;;;;;;;;;;7.20;99.90;;;;;;4995130;28;19914;-77
2023/12/02 13:57:58;;;;;;;;;;;7.20;99.90;;;;;;5012907;28;19944;-76
2023/12/02 14:00:24;;;;;;;;;;;7.10;99.90;;;;;;5014179;28;19999;-75
2023/12/02 14:03:05;;;;;;;;;;;7.00;99.90;;;;;;5014437;28;20365;-76
2023/12/02 14:05:50;;;;;;;;;;;7.00;99.90;;;;;;5014221;28;19914;-77
2023/12/02 14:08:16;;;;;;;;;;;6.90;99.90;;;;;;5014089;28;19960;-77
2023/12/02 14:10:43;;;;;;;;;;;6.70;99.90;;;;;;5013936;28;19909;-75
2023/12/02 14:13:22;;;;;;;;;;;6.50;99.90;;;;;;5000736;28;20352;-76
2023/12/02 14:15:50;;;;;;;;;;;6.40;99.90;;;;;;4994501;28;19960;-76
2023/12/02 14:18:22;;;;;;;;;;;6.30;99.90;;;;;;5000973;28;19968;-77
2023/12/02 14:21:06;;;;;;;;;;;6.20;99.90;;;;;;5012083;28;19926;-77
2023/12/02 14:23:38;;;;;;;;;;;6.10;99.90;;;;;;5026961;28;19910;-75
2023/12/02 14:26:04;;;;;;;;;;;5.90;99.90;;;;;;5013774;28;19909;-75
2023/12/02 14:28:55;;;;;;;;;;;5.90;99.90;;;;;;5011885;28;19932;-77
2023/12/02 14:31:41;;;;;;;;;;;5.80;99.90;;;;;;4995558;28;19917;-77
2023/12/02 14:34:25;;;;;;;;;;;5.70;99.90;;;;;;4994029;28;20013;-77
2023/12/02 14:37:11;;;;;;;;;;;5.70;99.90;;;;;;4994194;28;19918;-75